Terminal Aerodrome Forecast
Issued by NWS

Home | Current Version | Previous Version | Text Only | Print | Product List | Glossary On
Versions: 1 2 3 4 5 6 7 8 9 10 11 12 13 14
000
FTUS44 KBMX 022300
TAFMGM
TAF
KMGM 022329Z 0300/0324 VRB02KT 4SM -DZ BR OVC006
     FM031300 10003KT 2SM BR OVC004
     FM031600 15004KT 5SM BR OVC008=

USA.gov is the U.S. government's official web portal to all federal, state and local government web resources and services.